Flight Track Log - Related Links

Times and Time Zones

All times are in EDT time to prevent confusion due to time zone crossing. See the SKW6345 flight status page for this flight to view local times or setup timezone preferences in your user account.

Time Position Orientation Groundspeed Altitude Reporting Facility
EDT Latitude Longitude Course Direction KTS MPH feet Rate Location/Type
Wed 03:24:00 PM 45.3829 -111.8098 230° Southwest  Level Estimated
Wed 03:24:48 PM 45.8014 -111.1883 229° Southwest 152 175 5,600  Level Salt Lake Center
Wed 03:25:00 PM 45.3168 -111.9185 229° Southwest  Level Estimated
Wed 03:25:50 PM 45.7844 -111.2675 253° West 186 214 7,800  Level Salt Lake Center
Wed 03:26:00 PM 45.2506 -112.0270 229° Southwest  Level Estimated
Wed 03:26:52 PM 45.7581 -111.3428 243° Southwest 199 229 10,200  Level Salt Lake Center
Wed 03:27:00 PM 45.1809 -112.1406 229° Southwest  Level Estimated
Wed 03:27:54 PM 45.7322 -111.4225 245° Southwest 210 242 11,900  Level Salt Lake Center
Wed 03:28:00 PM 45.1111 -112.2540 229° Southwest  Level Estimated
Wed 03:28:57 PM 45.7325 -111.5308 270° West 254 292 13,600  Level Salt Lake Center
Wed 03:29:00 PM 45.0412 -112.3671 229° Southwest  Level Estimated
Wed 03:29:59 PM 45.7017 -111.6236 245° Southwest 264 304 15,400  Level Salt Lake Center
Wed 03:30:00 PM 44.9712 -112.4800 229° Southwest  Level Estimated
Wed 03:31:01 PM 45.6597 -111.7194 238° Southwest 279 321 16,400  Level Salt Lake Center
Wed 03:32:03 PM 45.6069 -111.8492 240° Southwest 310 357 17,700 1,065 Climbing Salt Lake Center
Wed 03:33:05 PM 45.5553 -111.9597 236° Southwest 329 379 18,600 1,113 Climbing Salt Lake Center
Wed 03:34:07 PM 45.5053 -112.0722 238° Southwest 336 387 20,000 1,403 Climbing Salt Lake Center
Wed 03:35:09 PM 45.4578 -112.1781 237° Southwest 322 371 21,500 1,113 Climbing Salt Lake Center
Wed 03:36:11 PM 45.4094 -112.2817 236° Southwest 315 362 22,300 677 Climbing Salt Lake Center
Wed 03:37:13 PM 45.3525 -112.4075 237° Southwest 324 373 22,900 532 Climbing Salt Lake Center
Wed 03:38:15 PM 45.3028 -112.5156 237° Southwest 335 386 23,400 532 Climbing Salt Lake Center
Wed 03:39:17 PM 45.2431 -112.6439 237° Southwest 345 397 24,000 532 Climbing Salt Lake Center
Wed 03:40:19 PM 45.1917 -112.7539 236° Southwest 349 402 24,500 484 Climbing Salt Lake Center
Wed 03:41:21 PM 45.1314 -112.8847 237° Southwest 354 407 25,000 484 Climbing Salt Lake Center
Wed 03:42:23 PM 45.0794 -112.9961 237° Southwest 356 410 25,500 532 Climbing Salt Lake Center
Wed 03:43:25 PM 45.0183 -113.1258 236° Southwest 356 410 26,100 532 Climbing Salt Lake Center
Wed 03:44:27 PM 44.9656 -113.2364 236° Southwest 355 409 26,600 484 Climbing Salt Lake Center
Wed 03:45:29 PM 44.9042 -113.3656 236° Southwest 356 410 27,100 484 Climbing Salt Lake Center
Wed 03:46:31 PM 44.8517 -113.4761 236° Southwest 356 410 27,600 484 Climbing Salt Lake Center
Wed 03:47:33 PM 44.8017 -113.5850 237° Southwest 349 402 28,100 532 Climbing Salt Lake Center
Wed 03:48:35 PM 44.7403 -113.7106 235° Southwest 348 400 28,700 484 Climbing Salt Lake Center
Wed 03:49:37 PM 44.6900 -113.8186 237° Southwest 345 397 29,100 484 Climbing Salt Lake Center
Wed 03:50:39 PM 44.6294 -113.9425 236° Southwest 345 397 29,700 532 Climbing Salt Lake Center
Wed 03:51:41 PM 44.5708 -114.0606 235° Southwest 348 400 30,200 484 Climbing Salt Lake Center
Wed 03:52:43 PM 44.5194 -114.1656 236° Southwest 343 395 30,700 532 Climbing Salt Lake Center
Wed 03:53:45 PM 44.4619 -114.2886 237° Southwest 339 390 31,300 532 Climbing Salt Lake Center
Wed 03:54:47 PM 44.4100 -114.3922 235° Southwest 338 389 31,800 339 Climbing Salt Lake Center
Wed 03:55:49 PM 44.3500 -114.5131 235° Southwest 339 390 32,000 97 Climbing Salt Lake Center
Wed 03:56:51 PM 44.2961 -114.6211 235° Southwest 346 398 32,000  Level Salt Lake Center
Wed 03:57:53 PM 44.2331 -114.7467 235° Southwest 353 406 32,000  Level Salt Lake Center
Wed 03:58:55 PM 44.1783 -114.8586 236° Southwest 360 414 32,000  Level Salt Lake Center
Wed 03:59:57 PM 44.1211 -114.9722 235° Southwest 369 425 32,000  Level Salt Lake Center
Wed 04:00:59 PM 44.0508 -115.1092 235° Southwest 383 441 32,000  Level Salt Lake Center
Wed 04:02:01 PM 43.9919 -115.2231 234° Southwest 379 436 32,000  Level Salt Lake Center
Wed 04:03:03 PM 43.9236 -115.3586 235° Southwest 383 441 32,000  Level Salt Lake Center
Wed 04:04:05 PM 43.8656 -115.4742 235° Southwest 380 437 32,000  Level Salt Lake Center
Wed 04:05:07 PM 43.7961 -115.6089 234° Southwest 383 441 32,000  Level Salt Lake Center
Wed 04:06:09 PM 43.7367 -115.7242 235° Southwest 383 441 32,000  Level Salt Lake Center
Wed 04:07:11 PM 43.6675 -115.8594 235° Southwest 385 443 32,000  Level Salt Lake Center
Wed 04:08:13 PM 43.6083 -115.9747 235° Southwest 384 442 32,000  Level Salt Lake Center
Wed 04:09:15 PM 43.5483 -116.0892 234° Southwest 383 441 32,000  Level Salt Lake Center
Wed 04:10:17 PM 43.4786 -116.2233 234° Southwest 384 442 32,000  Level Salt Lake Center
Wed 04:11:19 PM 43.4181 -116.3372 234° Southwest 383 441 32,000  Level Salt Lake Center
Wed 04:12:21 PM 43.3478 -116.4706 234° Southwest 384 442 32,000  Level Salt Lake Center
Wed 04:13:23 PM 43.2875 -116.5850 234° Southwest 386 444 32,000  Level Salt Lake Center
Wed 04:14:25 PM 43.2164 -116.7183 234° Southwest 389 448 32,000  Level Salt Lake Center
Wed 04:15:27 PM 43.1556 -116.8331 234° Southwest 389 448 32,000  Level Salt Lake Center
Wed 04:16:28 PM 43.0836 -116.9653 233° Southwest 388 447 32,000  Level Salt Lake Center
Wed 04:17:30 PM 43.0228 -117.0778 234° Southwest 385 443 32,000  Level Salt Lake Center
Wed 04:18:32 PM 42.9617 -117.1919 234° Southwest 387 445 32,000  Level Salt Lake Center
Wed 04:19:34 PM 42.8900 -117.3225 233° Southwest 386 444 32,000  Level Salt Lake Center
Wed 04:20:36 PM 42.8292 -117.4347 234° Southwest 386 444 32,000  Level Salt Lake Center
Wed 04:21:38 PM 42.7569 -117.5661 233° Southwest 386 444 32,000  Level Salt Lake Center
Wed 04:22:40 PM 42.6958 -117.6778 233° Southwest 384 442 32,000  Level Salt Lake Center
Wed 04:23:42 PM 42.6242 -117.8072 233° Southwest 385 443 32,000  Level Salt Lake Center
Wed 04:24:44 PM 42.5567 -117.9125 229° Southwest 387 445 32,000  Level Salt Lake Center
Wed 04:25:46 PM 42.4653 -118.0200 221° Southwest 390 449 32,000  Level Salt Lake Center
Wed 04:26:48 PM 42.3875 -118.1142 222° Southwest 391 450 32,000  Level Salt Lake Center
Wed 04:27:50 PM 42.3022 -118.2183 222° Southwest 389 448 32,000  Level Salt Lake Center
Wed 04:28:52 PM 42.2239 -118.3125 222° Southwest 392 451 32,000  Level Salt Lake Center
Wed 04:29:54 PM 42.1328 -118.4225 222° Southwest 394 453 32,000  Level Salt Lake Center
Wed 04:30:56 PM 42.0542 -118.5139 221° Southwest 391 450 32,000  Level Salt Lake Center
Wed 04:31:58 PM 41.9631 -118.6211 221° Southwest 390 449 32,000  Level Salt Lake Center
Wed 04:33:00 PM 41.8850 -118.7144 222° Southwest 391 450 32,000  Level Salt Lake Center
Wed 04:34:01 PM 41.7944 -118.8214 221° Southwest 389 448 32,000  Level Salt Lake Center
Wed 04:35:03 PM 41.7164 -118.9128 221° Southwest 388 447 32,000  Level Salt Lake Center
Wed 04:36:05 PM 41.6247 -119.0189 221° Southwest 390 449 32,000  Level Salt Lake Center
Wed 04:37:07 PM 41.5469 -119.1103 221° Southwest 390 449 32,000  Level Salt Lake Center
Wed 04:37:45 PM 41.5019 -119.1589 219° Southwest 393 452 32,000  Level Oakland Center
Wed 04:38:46 PM 41.4206 -119.2547 221° Southwest 393 452 32,000  Level Oakland Center
Wed 04:39:48 PM 41.3256 -119.3661 221° Southwest 394 453 32,000  Level Oakland Center
Wed 04:40:40 PM 41.2550 -119.4464 221° Southwest 388 447 32,000  Level Seattle Center
Wed 04:41:41 PM 41.1739 -119.5394 221° Southwest 387 445 32,000  Level Seattle Center
Wed 04:42:43 PM 41.0922 -119.6339 221° Southwest 389 448 32,000  Level Seattle Center
Wed 04:43:44 PM 41.0094 -119.7269 220° Southwest 391 450 32,000  Level Seattle Center
Wed 04:44:45 PM 40.9267 -119.8208 221° Southwest 391 450 32,000  Level Seattle Center
Wed 04:45:46 PM 40.8447 -119.9139 221° Southwest 389 448 32,000  Level Seattle Center
Wed 04:46:47 PM 40.7608 -120.0083 220° Southwest 394 453 32,000  Level Seattle Center
Wed 04:47:48 PM 40.6775 -120.1019 220° Southwest 394 453 32,000  Level Seattle Center
Wed 04:48:49 PM 40.5783 -120.2128 220° Southwest 391 450 32,000  Level Seattle Center
Wed 04:49:50 PM 40.4931 -120.3067 220° Southwest 396 456 32,000  Level Seattle Center
Wed 04:50:51 PM 40.4111 -120.3972 220° Southwest 390 449 32,000  Level Seattle Center
Wed 04:51:52 PM 40.3311 -120.4864 220° Southwest 386 444 32,000  Level Seattle Center
Wed 04:52:53 PM 40.2464 -120.5783 220° Southwest 393 452 32,000  Level Seattle Center
Wed 04:53:54 PM 40.1617 -120.6719 220° Southwest 397 457 32,000  Level Seattle Center
Wed 04:54:55 PM 40.0753 -120.7658 220° Southwest 401 461 32,000  Level Seattle Center
Wed 04:56:11 PM 39.9717 -120.8753 219° Southwest 402 463 32,000  Level Oakland Center
Wed 04:57:12 PM 39.8694 -120.9894 221° Southwest 404 465 32,000  Level Oakland Center
Wed 04:58:14 PM 39.7828 -121.0811 219° Southwest 403 464 32,000  Level Oakland Center
Wed 04:59:15 PM 39.6956 -121.1772 220° Southwest 404 465 32,000  Level Oakland Center
Wed 05:00:17 PM 39.6092 -121.2697 220° Southwest 403 464 32,000  Level Oakland Center
Wed 05:01:18 PM 39.5222 -121.3608 219° Southwest 402 463 32,000  Level Oakland Center
Wed 05:02:19 PM 39.4386 -121.4511 220° Southwest 403 464 32,000  Level Oakland Center
Wed 05:03:21 PM 39.3522 -121.5442 220° Southwest 405 466 32,000  Level Oakland Center
Wed 05:04:22 PM 39.2664 -121.6364 220° Southwest 405 466 32,000  Level Oakland Center
Wed 05:05:23 PM 39.1619 -121.7461 219° Southwest 406 467 32,000  Level Oakland Center
Wed 05:06:25 PM 39.0758 -121.8375 219° Southwest 404 465 32,000  Level Oakland Center
Wed 05:07:26 PM 38.9886 -121.9294 219° Southwest 407 468 32,000  Level Oakland Center
Wed 05:08:28 PM 38.9022 -122.0208 219° Southwest 405 466 32,000  Level Oakland Center
Wed 05:09:29 PM 38.8144 -122.1103 218° Southwest 404 465 32,000  Level Oakland Center
Wed 05:10:30 PM 38.7286 -122.2011 220° Southwest 402 463 32,000  Level Oakland Center
Wed 05:11:32 PM 38.6272 -122.3061 219° Southwest 403 464 32,000 -195 Level Oakland Center
Wed 05:12:33 PM 38.5394 -122.3972 219° Southwest 406 467 31,600 -1,672 Descending Oakland Center
Wed 05:13:34 PM 38.4511 -122.4892 219° Southwest 409 471 28,600 -2,927 Descending Oakland Center
Wed 05:14:36 PM 38.3647 -122.5783 219° Southwest 401 461 25,600 -2,927 Descending Oakland Center
Wed 05:15:37 PM 38.2811 -122.6636 219° Southwest 389 448 22,600 -2,951 Descending Oakland Center
Wed 05:16:38 PM 38.2000 -122.7408 217° Southwest 373 429 19,600 -2,829 Descending Oakland Center
Wed 05:17:40 PM 38.1019 -122.7353 177° South 359 413 16,800 -2,829 Descending Oakland Center
Wed 05:18:41 PM 38.0036 -122.7056 167° South 364 419 13,800 -2,852 Descending Oakland Center
Wed 05:19:42 PM 37.8950 -122.6681 165° South 355 409 11,000 -1,415 Descending Oakland Center
Wed 05:20:44 PM 37.8272 -122.5969 140° Southeast 329 379 10,900 -49 Descending Oakland Center
Wed 05:21:45 PM 37.7592 -122.5239 140° Southeast 325 374 10,900  Level Oakland Center
Wed 05:22:46 PM 37.6889 -122.4494 140° Southeast 329 379 10,900  Level Oakland Center
Wed 05:23:47 PM 37.6261 -122.3828 140° Southeast 294 338 10,900 -696 Level Oakland Center
Wed 05:25:04 PM 37.5500 -122.3167 145° Southeast 239 275 9,300 -1,533 Descending Northern Cal TRACON
Wed 05:26:04 PM 37.4833 -122.2833 158° South 228 262 7,400 -1,714 Descending Northern Cal TRACON
Wed 05:27:52 PM 37.4622 -122.1875 105° East 231 266 4,500 -1,376 Descending Oakland Center
Wed 05:28:54 PM 37.5183 -122.1900 358° North 222 255 3,500 -878 Descending Oakland Center
Wed 05:29:55 PM 37.5583 -122.2258 325° Northwest 195 224 2,700 -787 Descending Oakland Center

Login

Don't have an account? Register now (free) for customized features, flight alerts, and more!